sensor_id;sensor_type;location;lat;lon;timestamp;temperature;humidity
18073;DHT22;9161;47.348;9.648;2023-05-16T00:01:13;11.70;99.90
18073;DHT22;9161;47.348;9.648;2023-05-16T00:06:16;11.70;99.90
18073;DHT22;9161;47.348;9.648;2023-05-16T00:11:19;11.70;99.90
18073;DHT22;9161;47.348;9.648;2023-05-16T00:16:22;11.80;99.90
18073;DHT22;9161;47.348;9.648;2023-05-16T00:21:26;11.80;99.90
18073;DHT22;9161;47.348;9.648;2023-05-16T00:26:28;11.80;99.90
18073;DHT22;9161;47.348;9.648;2023-05-16T00:31:32;11.80;99.90
18073;DHT22;9161;47.348;9.648;2023-05-16T00:36:34;11.60;99.90
18073;DHT22;9161;47.348;9.648;2023-05-16T00:41:36;11.40;99.90
18073;DHT22;9161;47.348;9.648;2023-05-16T00:46:40;11.40;99.90
18073;DHT22;9161;47.348;9.648;2023-05-16T00:51:42;11.40;99.90
18073;DHT22;9161;47.348;9.648;2023-05-16T00:56:44;11.40;99.90
18073;DHT22;9161;47.348;9.648;2023-05-16T01:01:47;11.30;99.90
18073;DHT22;9161;47.348;9.648;2023-05-16T01:06:50;11.30;99.90
18073;DHT22;9161;47.348;9.648;2023-05-16T01:12:05;11.20;99.90
18073;DHT22;9161;47.348;9.648;2023-05-16T01:17:19;11.20;99.90
18073;DHT22;9161;47.348;9.648;2023-05-16T01:22:29;11.20;99.90
18073;DHT22;9161;47.348;9.648;2023-05-16T01:27:34;11.40;99.90
18073;DHT22;9161;47.348;9.648;2023-05-16T01:32:39;11.40;99.90
18073;DHT22;9161;47.348;9.648;2023-05-16T01:37:46;11.30;99.90
18073;DHT22;9161;47.348;9.648;2023-05-16T01:42:51;11.30;99.90
18073;DHT22;9161;47.348;9.648;2023-05-16T01:48:02;11.20;99.90
18073;DHT22;9161;47.348;9.648;2023-05-16T01:53:07;11.30;99.90
18073;DHT22;9161;47.348;9.648;2023-05-16T01:58:12;11.30;99.90
18073;DHT22;9161;47.348;9.648;2023-05-16T02:03:15;11.30;99.90
18073;DHT22;9161;47.348;9.648;2023-05-16T02:08:18;11.20;99.90
18073;DHT22;9161;47.348;9.648;2023-05-16T02:13:21;11.30;99.90
18073;DHT22;9161;47.348;9.648;2023-05-16T02:18:23;11.30;99.90
18073;DHT22;9161;47.348;9.648;2023-05-16T02:23:25;11.40;99.90
18073;DHT22;9161;47.348;9.648;2023-05-16T02:28:28;11.40;99.90
18073;DHT22;9161;47.348;9.648;2023-05-16T02:33:31;11.40;99.90
18073;DHT22;9161;47.348;9.648;2023-05-16T02:38:34;11.40;99.90
18073;DHT22;9161;47.348;9.648;2023-05-16T02:43:37;11.40;99.90
18073;DHT22;9161;47.348;9.648;2023-05-16T02:48:39;11.40;99.90
18073;DHT22;9161;47.348;9.648;2023-05-16T02:53:41;11.50;99.90
18073;DHT22;9161;47.348;9.648;2023-05-16T02:58:46;11.50;99.90
18073;DHT22;9161;47.348;9.648;2023-05-16T03:03:49;11.50;99.90
18073;DHT22;9161;47.348;9.648;2023-05-16T03:08:51;11.50;99.90
18073;DHT22;9161;47.348;9.648;2023-05-16T03:13:54;11.50;99.90
18073;DHT22;9161;47.348;9.648;2023-05-16T03:19:01;11.50;99.90
18073;DHT22;9161;47.348;9.648;2023-05-16T03:24:04;11.40;99.90
18073;DHT22;9161;47.348;9.648;2023-05-16T03:29:09;11.40;99.90
18073;DHT22;9161;47.348;9.648;2023-05-16T03:34:11;11.40;99.90
18073;DHT22;9161;47.348;9.648;2023-05-16T03:39:13;11.30;99.90
18073;DHT22;9161;47.348;9.648;2023-05-16T03:44:16;11.30;99.90
18073;DHT22;9161;47.348;9.648;2023-05-16T03:49:23;11.20;99.90
18073;DHT22;9161;47.348;9.648;2023-05-16T03:54:26;11.30;99.90
18073;DHT22;9161;47.348;9.648;2023-05-16T03:59:29;11.20;99.90
18073;DHT22;9161;47.348;9.648;2023-05-16T04:04:31;11.30;99.90
18073;DHT22;9161;47.348;9.648;2023-05-16T04:09:33;11.40;99.90
18073;DHT22;9161;47.348;9.648;2023-05-16T04:14:37;11.30;99.90
18073;DHT22;9161;47.348;9.648;2023-05-16T04:19:39;11.30;99.90
18073;DHT22;9161;47.348;9.648;2023-05-16T04:24:41;11.20;99.90
18073;DHT22;9161;47.348;9.648;2023-05-16T04:29:44;11.30;99.90
18073;DHT22;9161;47.348;9.648;2023-05-16T04:34:46;11.20;99.90
18073;DHT22;9161;47.348;9.648;2023-05-16T04:39:49;11.10;99.90
18073;DHT22;9161;47.348;9.648;2023-05-16T04:44:53;11.10;99.90
18073;DHT22;9161;47.348;9.648;2023-05-16T04:49:56;11.10;99.90
18073;DHT22;9161;47.348;9.648;2023-05-16T04:54:58;11.00;99.90
18073;DHT22;9161;47.348;9.648;2023-05-16T05:00:03;10.90;99.90
18073;DHT22;9161;47.348;9.648;2023-05-16T05:05:10;10.90;99.90
18073;DHT22;9161;47.348;9.648;2023-05-16T05:10:12;11.00;99.90
18073;DHT22;9161;47.348;9.648;2023-05-16T05:15:15;11.10;99.90
18073;DHT22;9161;47.348;9.648;2023-05-16T05:20:18;10.90;99.90
18073;DHT22;9161;47.348;9.648;2023-05-16T05:25:21;11.00;99.90
18073;DHT22;9161;47.348;9.648;2023-05-16T05:30:25;10.90;99.90
18073;DHT22;9161;47.348;9.648;2023-05-16T05:35:27;10.70;99.90
18073;DHT22;9161;47.348;9.648;2023-05-16T05:40:29;10.60;99.90
18073;DHT22;9161;47.348;9.648;2023-05-16T05:45:32;10.60;99.90
18073;DHT22;9161;47.348;9.648;2023-05-16T05:50:35;10.60;99.90
18073;DHT22;9161;47.348;9.648;2023-05-16T05:55:37;10.70;99.90
18073;DHT22;9161;47.348;9.648;2023-05-16T06:00:42;10.60;99.90
18073;DHT22;9161;47.348;9.648;2023-05-16T06:05:44;10.70;99.90
18073;DHT22;9161;47.348;9.648;2023-05-16T06:10:47;10.60;99.90
18073;DHT22;9161;47.348;9.648;2023-05-16T06:15:51;10.60;99.90
18073;DHT22;9161;47.348;9.648;2023-05-16T06:20:53;10.70;99.90
18073;DHT22;9161;47.348;9.648;2023-05-16T06:25:55;10.80;99.90
18073;DHT22;9161;47.348;9.648;2023-05-16T06:30:58;10.70;99.90
18073;DHT22;9161;47.348;9.648;2023-05-16T06:36:00;10.60;99.90
18073;DHT22;9161;47.348;9.648;2023-05-16T06:41:03;10.80;99.90
18073;DHT22;9161;47.348;9.648;2023-05-16T06:46:07;10.70;99.90
18073;DHT22;9161;47.348;9.648;2023-05-16T06:51:09;10.80;99.90
18073;DHT22;9161;47.348;9.648;2023-05-16T06:56:11;11.00;99.90
18073;DHT22;9161;47.348;9.648;2023-05-16T07:01:15;11.00;99.90
18073;DHT22;9161;47.348;9.648;2023-05-16T07:06:17;11.10;99.90
18073;DHT22;9161;47.348;9.648;2023-05-16T07:11:20;11.30;99.90
18073;DHT22;9161;47.348;9.648;2023-05-16T07:16:23;11.20;99.90
18073;DHT22;9161;47.348;9.648;2023-05-16T07:21:28;11.40;99.90
18073;DHT22;9161;47.348;9.648;2023-05-16T07:26:30;11.50;99.90
18073;DHT22;9161;47.348;9.648;2023-05-16T07:31:33;11.60;99.90
18073;DHT22;9161;47.348;9.648;2023-05-16T07:36:35;11.60;99.90
18073;DHT22;9161;47.348;9.648;2023-05-16T07:41:37;11.90;99.90
18073;DHT22;9161;47.348;9.648;2023-05-16T07:46:41;11.90;99.90
18073;DHT22;9161;47.348;9.648;2023-05-16T07:51:44;12.00;99.90
18073;DHT22;9161;47.348;9.648;2023-05-16T07:56:46;12.30;99.90
18073;DHT22;9161;47.348;9.648;2023-05-16T08:01:50;12.50;99.90
18073;DHT22;9161;47.348;9.648;2023-05-16T08:06:53;12.80;99.90
18073;DHT22;9161;47.348;9.648;2023-05-16T08:11:55;12.90;99.90
18073;DHT22;9161;47.348;9.648;2023-05-16T08:16:59;13.10;99.90
18073;DHT22;9161;47.348;9.648;2023-05-16T08:22:01;13.00;99.90
18073;DHT22;9161;47.348;9.648;2023-05-16T08:27:04;12.90;99.90
18073;DHT22;9161;47.348;9.648;2023-05-16T08:32:08;12.90;99.90
18073;DHT22;9161;47.348;9.648;2023-05-16T08:37:10;12.90;99.90
18073;DHT22;9161;47.348;9.648;2023-05-16T08:42:14;13.20;99.90
18073;DHT22;9161;47.348;9.648;2023-05-16T08:47:18;13.50;99.90
18073;DHT22;9161;47.348;9.648;2023-05-16T08:52:25;13.50;99.90
18073;DHT22;9161;47.348;9.648;2023-05-16T08:57:29;13.30;99.90
18073;DHT22;9161;47.348;9.648;2023-05-16T09:02:34;13.30;99.90
18073;DHT22;9161;47.348;9.648;2023-05-16T09:07:36;13.50;99.90
18073;DHT22;9161;47.348;9.648;2023-05-16T09:12:40;13.60;99.90
18073;DHT22;9161;47.348;9.648;2023-05-16T09:17:45;13.60;99.90
18073;DHT22;9161;47.348;9.648;2023-05-16T09:22:52;13.30;99.90
18073;DHT22;9161;47.348;9.648;2023-05-16T09:27:55;13.10;99.90
18073;DHT22;9161;47.348;9.648;2023-05-16T09:32:59;13.10;99.90
18073;DHT22;9161;47.348;9.648;2023-05-16T09:38:01;12.80;99.90
18073;DHT22;9161;47.348;9.648;2023-05-16T09:43:05;12.60;99.90
18073;DHT22;9161;47.348;9.648;2023-05-16T09:48:10;12.40;99.90
18073;DHT22;9161;47.348;9.648;2023-05-16T09:53:13;12.40;99.90
18073;DHT22;9161;47.348;9.648;2023-05-16T09:58:16;12.50;99.90
18073;DHT22;9161;47.348;9.648;2023-05-16T10:03:21;12.80;99.90
18073;DHT22;9161;47.348;9.648;2023-05-16T10:08:25;12.90;99.90
18073;DHT22;9161;47.348;9.648;2023-05-16T10:13:28;12.90;99.90
18073;DHT22;9161;47.348;9.648;2023-05-16T10:18:33;12.90;99.90
18073;DHT22;9161;47.348;9.648;2023-05-16T10:23:38;13.00;99.90
18073;DHT22;9161;47.348;9.648;2023-05-16T10:28:42;13.20;99.90
18073;DHT22;9161;47.348;9.648;2023-05-16T10:33:54;13.40;99.90
18073;DHT22;9161;47.348;9.648;2023-05-16T10:39:06;13.10;99.90
18073;DHT22;9161;47.348;9.648;2023-05-16T10:44:20;12.60;99.90
18073;DHT22;9161;47.348;9.648;2023-05-16T10:49:26;12.50;99.90
18073;DHT22;9161;47.348;9.648;2023-05-16T10:54:34;12.50;99.90
18073;DHT22;9161;47.348;9.648;2023-05-16T10:59:42;12.40;99.90
18073;DHT22;9161;47.348;9.648;2023-05-16T11:04:53;12.20;99.90
18073;DHT22;9161;47.348;9.648;2023-05-16T11:10:06;12.20;99.90
18073;DHT22;9161;47.348;9.648;2023-05-16T11:15:25;12.00;99.90
18073;DHT22;9161;47.348;9.648;2023-05-16T11:20:31;12.30;99.90
18073;DHT22;9161;47.348;9.648;2023-05-16T11:25:35;12.70;99.90
18073;DHT22;9161;47.348;9.648;2023-05-16T11:30:42;13.00;99.90
18073;DHT22;9161;47.348;9.648;2023-05-16T11:36:01;13.20;99.90
18073;DHT22;9161;47.348;9.648;2023-05-16T11:41:16;13.00;99.90
18073;DHT22;9161;47.348;9.648;2023-05-16T11:46:21;13.40;99.90
18073;DHT22;9161;47.348;9.648;2023-05-16T11:51:24;13.80;99.90
18073;DHT22;9161;47.348;9.648;2023-05-16T11:56:27;13.70;99.90
18073;DHT22;9161;47.348;9.648;2023-05-16T12:01:33;13.70;99.90
18073;DHT22;9161;47.348;9.648;2023-05-16T12:06:38;13.20;99.90
18073;DHT22;9161;47.348;9.648;2023-05-16T12:11:43;12.90;99.90
18073;DHT22;9161;47.348;9.648;2023-05-16T12:16:45;12.80;99.90
18073;DHT22;9161;47.348;9.648;2023-05-16T12:21:53;12.80;99.90
18073;DHT22;9161;47.348;9.648;2023-05-16T12:26:56;12.70;99.90
18073;DHT22;9161;47.348;9.648;2023-05-16T12:31:59;12.50;99.90
18073;DHT22;9161;47.348;9.648;2023-05-16T12:37:03;12.50;99.90
18073;DHT22;9161;47.348;9.648;2023-05-16T12:42:06;12.20;99.90
18073;DHT22;9161;47.348;9.648;2023-05-16T12:47:11;12.30;99.90
18073;DHT22;9161;47.348;9.648;2023-05-16T12:52:18;12.40;99.90
18073;DHT22;9161;47.348;9.648;2023-05-16T12:57:21;12.70;99.90
18073;DHT22;9161;47.348;9.648;2023-05-16T13:02:23;13.40;99.90
18073;DHT22;9161;47.348;9.648;2023-05-16T13:07:27;14.20;99.90
18073;DHT22;9161;47.348;9.648;2023-05-16T13:12:30;14.10;99.90
18073;DHT22;9161;47.348;9.648;2023-05-16T13:17:32;14.20;99.90
18073;DHT22;9161;47.348;9.648;2023-05-16T13:22:36;14.50;99.90
18073;DHT22;9161;47.348;9.648;2023-05-16T13:27:38;14.60;99.90
18073;DHT22;9161;47.348;9.648;2023-05-16T13:32:40;13.90;99.90
18073;DHT22;9161;47.348;9.648;2023-05-16T13:37:44;13.60;99.90
18073;DHT22;9161;47.348;9.648;2023-05-16T13:42:46;13.40;99.90
18073;DHT22;9161;47.348;9.648;2023-05-16T13:47:48;13.40;99.90
18073;DHT22;9161;47.348;9.648;2023-05-16T13:52:52;13.10;99.90
18073;DHT22;9161;47.348;9.648;2023-05-16T13:57:55;13.00;99.90
18073;DHT22;9161;47.348;9.648;2023-05-16T14:02:57;12.90;99.90
18073;DHT22;9161;47.348;9.648;2023-05-16T14:08:01;12.80;99.90
18073;DHT22;9161;47.348;9.648;2023-05-16T14:13:03;12.50;99.90
18073;DHT22;9161;47.348;9.648;2023-05-16T14:18:05;12.40;99.90
18073;DHT22;9161;47.348;9.648;2023-05-16T14:23:09;12.30;99.90
18073;DHT22;9161;47.348;9.648;2023-05-16T14:28:11;12.20;99.90
18073;DHT22;9161;47.348;9.648;2023-05-16T14:33:14;12.10;99.90
18073;DHT22;9161;47.348;9.648;2023-05-16T14:38:18;12.10;99.90
18073;DHT22;9161;47.348;9.648;2023-05-16T14:43:21;12.00;99.90
18073;DHT22;9161;47.348;9.648;2023-05-16T14:48:24;12.10;99.90
18073;DHT22;9161;47.348;9.648;2023-05-16T14:53:28;12.10;99.90
18073;DHT22;9161;47.348;9.648;2023-05-16T14:58:30;12.10;99.90
18073;DHT22;9161;47.348;9.648;2023-05-16T15:03:32;12.20;99.90
18073;DHT22;9161;47.348;9.648;2023-05-16T15:08:54;12.20;99.90
18073;DHT22;9161;47.348;9.648;2023-05-16T15:13:57;12.20;99.90
18073;DHT22;9161;47.348;9.648;2023-05-16T15:19:00;12.10;99.90
18073;DHT22;9161;47.348;9.648;2023-05-16T15:24:05;12.20;99.90
18073;DHT22;9161;47.348;9.648;2023-05-16T15:29:08;12.40;99.90
18073;DHT22;9161;47.348;9.648;2023-05-16T15:34:11;12.40;99.90
18073;DHT22;9161;47.348;9.648;2023-05-16T15:39:15;12.50;99.90
18073;DHT22;9161;47.348;9.648;2023-05-16T15:44:18;12.60;99.90
18073;DHT22;9161;47.348;9.648;2023-05-16T15:49:21;12.40;99.90
18073;DHT22;9161;47.348;9.648;2023-05-16T15:54:26;12.20;99.90
18073;DHT22;9161;47.348;9.648;2023-05-16T15:59:29;12.00;99.90
18073;DHT22;9161;47.348;9.648;2023-05-16T16:04:32;11.80;99.90
18073;DHT22;9161;47.348;9.648;2023-05-16T16:09:38;11.80;99.90
18073;DHT22;9161;47.348;9.648;2023-05-16T16:14:41;11.80;99.90
18073;DHT22;9161;47.348;9.648;2023-05-16T16:19:45;11.60;99.90
18073;DHT22;9161;47.348;9.648;2023-05-16T16:24:49;11.60;99.90
18073;DHT22;9161;47.348;9.648;2023-05-16T16:29:52;11.80;99.90
18073;DHT22;9161;47.348;9.648;2023-05-16T16:34:55;11.90;99.90
18073;DHT22;9161;47.348;9.648;2023-05-16T16:39:59;12.00;99.90
18073;DHT22;9161;47.348;9.648;2023-05-16T16:45:03;12.00;99.90
18073;DHT22;9161;47.348;9.648;2023-05-16T16:50:07;11.90;99.90
18073;DHT22;9161;47.348;9.648;2023-05-16T16:55:11;11.90;99.90
18073;DHT22;9161;47.348;9.648;2023-05-16T17:00:16;11.80;99.90
18073;DHT22;9161;47.348;9.648;2023-05-16T17:05:20;11.70;99.90
18073;DHT22;9161;47.348;9.648;2023-05-16T17:10:24;11.70;99.90
18073;DHT22;9161;47.348;9.648;2023-05-16T17:15:28;11.60;99.90
18073;DHT22;9161;47.348;9.648;2023-05-16T17:20:31;11.60;99.90
18073;DHT22;9161;47.348;9.648;2023-05-16T17:25:36;11.50;99.90
18073;DHT22;9161;47.348;9.648;2023-05-16T17:30:39;11.50;99.90
18073;DHT22;9161;47.348;9.648;2023-05-16T17:35:41;11.50;99.90
18073;DHT22;9161;47.348;9.648;2023-05-16T17:40:46;11.40;99.90
18073;DHT22;9161;47.348;9.648;2023-05-16T17:45:49;11.40;99.90
18073;DHT22;9161;47.348;9.648;2023-05-16T17:50:52;11.40;99.90
18073;DHT22;9161;47.348;9.648;2023-05-16T17:55:56;11.40;99.90
18073;DHT22;9161;47.348;9.648;2023-05-16T18:01:15;11.30;99.90
18073;DHT22;9161;47.348;9.648;2023-05-16T18:13:14;11.10;99.90
18073;DHT22;9161;47.348;9.648;2023-05-16T18:18:20;11.00;99.90
18073;DHT22;9161;47.348;9.648;2023-05-16T18:23:23;10.90;99.90
18073;DHT22;9161;47.348;9.648;2023-05-16T18:28:28;10.80;99.90
18073;DHT22;9161;47.348;9.648;2023-05-16T18:33:31;10.80;99.90
18073;DHT22;9161;47.348;9.648;2023-05-16T18:38:35;10.80;99.90
18073;DHT22;9161;47.348;9.648;2023-05-16T18:43:39;10.70;99.90
18073;DHT22;9161;47.348;9.648;2023-05-16T18:48:44;10.60;99.90
18073;DHT22;9161;47.348;9.648;2023-05-16T18:53:48;10.60;99.90
18073;DHT22;9161;47.348;9.648;2023-05-16T18:58:53;10.50;99.90
18073;DHT22;9161;47.348;9.648;2023-05-16T19:03:56;10.50;99.90
18073;DHT22;9161;47.348;9.648;2023-05-16T19:09:01;10.50;99.90
18073;DHT22;9161;47.348;9.648;2023-05-16T19:14:08;10.40;99.90
18073;DHT22;9161;47.348;9.648;2023-05-16T19:19:11;10.40;99.90
18073;DHT22;9161;47.348;9.648;2023-05-16T19:24:15;10.40;99.90
18073;DHT22;9161;47.348;9.648;2023-05-16T19:29:24;10.40;99.90
18073;DHT22;9161;47.348;9.648;2023-05-16T19:34:27;10.50;99.90
18073;DHT22;9161;47.348;9.648;2023-05-16T19:39:31;10.40;99.90
18073;DHT22;9161;47.348;9.648;2023-05-16T19:44:35;10.40;99.90
18073;DHT22;9161;47.348;9.648;2023-05-16T19:49:38;10.40;99.90
18073;DHT22;9161;47.348;9.648;2023-05-16T19:54:41;10.40;99.90
18073;DHT22;9161;47.348;9.648;2023-05-16T19:59:46;10.40;99.90
18073;DHT22;9161;47.348;9.648;2023-05-16T20:04:49;10.40;99.90
18073;DHT22;9161;47.348;9.648;2023-05-16T20:09:52;10.20;99.90
18073;DHT22;9161;47.348;9.648;2023-05-16T20:14:57;10.30;99.90
18073;DHT22;9161;47.348;9.648;2023-05-16T20:20:00;10.40;99.90
18073;DHT22;9161;47.348;9.648;2023-05-16T20:25:05;10.40;99.90
18073;DHT22;9161;47.348;9.648;2023-05-16T20:30:11;10.30;99.90
18073;DHT22;9161;47.348;9.648;2023-05-16T20:35:14;10.30;99.90
18073;DHT22;9161;47.348;9.648;2023-05-16T20:40:17;10.20;99.90
18073;DHT22;9161;47.348;9.648;2023-05-16T20:45:22;10.10;99.90
18073;DHT22;9161;47.348;9.648;2023-05-16T20:50:28;9.90;99.90
18073;DHT22;9161;47.348;9.648;2023-05-16T20:55:31;10.00;99.90
18073;DHT22;9161;47.348;9.648;2023-05-16T21:00:35;9.90;99.90
18073;DHT22;9161;47.348;9.648;2023-05-16T21:05:41;9.90;99.90
18073;DHT22;9161;47.348;9.648;2023-05-16T21:10:43;9.90;99.90
18073;DHT22;9161;47.348;9.648;2023-05-16T21:15:47;9.80;99.90
18073;DHT22;9161;47.348;9.648;2023-05-16T21:20:52;9.80;99.90
18073;DHT22;9161;47.348;9.648;2023-05-16T21:25:54;9.70;99.90
18073;DHT22;9161;47.348;9.648;2023-05-16T21:30:59;9.70;99.90
18073;DHT22;9161;47.348;9.648;2023-05-16T21:36:01;9.60;99.90
18073;DHT22;9161;47.348;9.648;2023-05-16T21:41:03;9.70;99.90
18073;DHT22;9161;47.348;9.648;2023-05-16T21:46:07;9.60;99.90
18073;DHT22;9161;47.348;9.648;2023-05-16T21:51:10;9.50;99.90
18073;DHT22;9161;47.348;9.648;2023-05-16T21:56:12;9.50;99.90
18073;DHT22;9161;47.348;9.648;2023-05-16T22:01:17;9.40;99.90
18073;DHT22;9161;47.348;9.648;2023-05-16T22:06:20;9.50;99.90
18073;DHT22;9161;47.348;9.648;2023-05-16T22:11:22;9.40;99.90
18073;DHT22;9161;47.348;9.648;2023-05-16T22:16:26;9.40;99.90
18073;DHT22;9161;47.348;9.648;2023-05-16T22:21:28;9.30;99.90
18073;DHT22;9161;47.348;9.648;2023-05-16T22:26:30;9.30;99.90
18073;DHT22;9161;47.348;9.648;2023-05-16T22:31:33;9.30;99.90
18073;DHT22;9161;47.348;9.648;2023-05-16T22:36:36;9.30;99.90
18073;DHT22;9161;47.348;9.648;2023-05-16T22:41:38;9.30;99.90
18073;DHT22;9161;47.348;9.648;2023-05-16T22:46:50;9.30;99.90
18073;DHT22;9161;47.348;9.648;2023-05-16T22:51:52;9.30;99.90
18073;DHT22;9161;47.348;9.648;2023-05-16T22:56:54;9.30;99.90
18073;DHT22;9161;47.348;9.648;2023-05-16T23:01:57;9.30;99.90
18073;DHT22;9161;47.348;9.648;2023-05-16T23:07:00;9.40;99.90
18073;DHT22;9161;47.348;9.648;2023-05-16T23:12:03;9.30;99.90
18073;DHT22;9161;47.348;9.648;2023-05-16T23:17:06;9.40;99.90
18073;DHT22;9161;47.348;9.648;2023-05-16T23:22:08;9.40;99.90
18073;DHT22;9161;47.348;9.648;2023-05-16T23:27:11;9.30;99.90
18073;DHT22;9161;47.348;9.648;2023-05-16T23:32:14;9.30;99.90
18073;DHT22;9161;47.348;9.648;2023-05-16T23:37:16;9.30;99.90
18073;DHT22;9161;47.348;9.648;2023-05-16T23:42:18;9.30;99.90
18073;DHT22;9161;47.348;9.648;2023-05-16T23:47:21;9.30;99.90
18073;DHT22;9161;47.348;9.648;2023-05-16T23:52:24;9.30;99.90
18073;DHT22;9161;47.348;9.648;2023-05-16T23:57:26;9.20;99.90
